Time;durP1;ratioP1;P1;durP2;ratioP2;P2;SDS_P1;SDS_P2;PMS_P1;PMS_P2;Temp;Humidity;BMP_temperature;BMP_pressure;BME280_temperature;BME280_humidity;BME280_pressure;Samples;Min_cycle;Max_cycle;Signal;HPM_P1;HPM_P2
2022/03/17 00:00:33;;;;;;;16.75;6.63;;;;;;;-7.04;52.39;102277.50;5097151;28;20048;-79
2022/03/17 00:03:00;;;;;;;16.35;6.75;;;;;;;-7.16;52.71;102270.13;5095111;28;20574;-78
2022/03/17 00:05:27;;;;;;;18.90;7.45;;;;;;;-7.06;52.84;102285.69;5095094;28;20052;-77
2022/03/17 00:07:54;;;;;;;14.95;6.47;;;;;;;-7.17;52.56;102255.63;5095152;28;20555;-78
2022/03/17 00:10:22;;;;;;;15.50;6.80;;;;;;;-7.13;53.01;102298.44;5094864;28;20056;-80
2022/03/17 00:12:49;;;;;;;15.50;6.72;;;;;;;-7.29;53.41;102276.41;5095458;28;20109;-78
2022/03/17 00:15:16;;;;;;;20.60;7.20;;;;;;;-7.24;53.06;102298.13;5094950;28;20087;-77
2022/03/17 00:17:44;;;;;;;14.45;6.50;;;;;;;-7.33;52.94;102276.78;5094963;28;20066;-80
2022/03/17 00:20:13;;;;;;;14.90;6.53;;;;;;;-7.30;53.25;102286.38;5095827;28;20065;-80
2022/03/17 00:22:40;;;;;;;14.93;6.78;;;;;;;-7.49;53.34;102258.88;5095359;28;20056;-79
2022/03/17 00:25:08;;;;;;;21.88;7.45;;;;;;;-7.28;52.79;102290.00;5099100;28;20548;-77
2022/03/17 00:27:35;;;;;;;15.88;6.70;;;;;;;-7.26;52.85;102294.50;5098210;28;20098;-76
2022/03/17 00:30:05;;;;;;;15.60;7.22;;;;;;;-7.45;53.22;102250.88;5103819;28;20059;-77
2022/03/17 00:32:32;;;;;;;13.55;6.00;;;;;;;-7.31;53.05;102293.09;5097955;28;20056;-78
2022/03/17 00:37:46;;;;;;;17.90;6.95;;;;;;;-7.38;53.58;102270.25;5094754;28;20496;-78
2022/03/17 00:40:13;;;;;;;18.73;7.35;;;;;;;-7.45;53.88;102265.22;5093983;28;20109;-79
2022/03/17 00:42:40;;;;;;;17.45;6.72;;;;;;;-7.38;53.66;102282.94;5094647;28;20059;-78
2022/03/17 00:45:12;;;;;;;13.40;6.38;;;;;;;-7.42;53.46;102293.47;5094562;28;20052;-78
2022/03/17 00:47:40;;;;;;;17.65;6.75;;;;;;;-7.34;53.45;102295.25;5094331;28;20420;-81
2022/03/17 00:50:10;;;;;;;14.85;6.63;;;;;;;-7.36;54.08;102296.72;5093787;28;20052;-77
2022/03/17 00:52:37;;;;;;;15.95;6.82;;;;;;;-7.49;53.30;102278.28;5095063;28;20079;-78
2022/03/17 00:55:06;;;;;;;16.27;7.13;;;;;;;-7.68;53.98;102252.44;5097242;28;20109;-77
2022/03/17 00:57:36;;;;;;;15.55;6.20;;;;;;;-7.43;53.79;102310.38;5109816;28;20040;-76
2022/03/17 01:00:07;;;;;;;13.02;5.82;;;;;;;-7.48;53.78;102301.34;5107303;28;20023;-78
2022/03/17 01:02:35;;;;;;;15.88;6.25;;;;;;;-7.75;54.12;102252.47;5079483;28;20600;-77
2022/03/17 01:05:03;;;;;;;17.17;6.45;;;;;;;-7.56;54.10;102314.78;5074382;28;20088;-77
2022/03/17 01:07:31;;;;;;;16.55;6.50;;;;;;;-7.57;54.26;102305.38;5074640;28;20065;-76
2022/03/17 01:09:58;;;;;;;16.83;6.95;;;;;;;-7.58;53.64;102311.16;5078479;28;20079;-78
2022/03/17 01:12:29;;;;;;;18.75;6.72;;;;;;;-7.68;54.33;102288.91;5075578;28;20048;-78
2022/03/17 01:14:56;;;;;;;14.65;6.13;;;;;;;-7.63;53.85;102320.78;5073576;28;20095;-78
2022/03/17 01:17:23;;;;;;;14.20;5.80;;;;;;;-7.71;54.16;102295.25;5071765;28;20063;-80
2022/03/17 01:19:50;;;;;;;14.52;6.50;;;;;;;-7.74;54.24;102299.97;5064297;28;20057;-79
2022/03/17 01:22:17;;;;;;;18.50;6.60;;;;;;;-8.00;53.94;102253.84;5076533;28;20048;-78
2022/03/17 01:24:46;;;;;;;13.05;5.60;;;;;;;-8.01;54.48;102252.94;5093432;28;20079;-77
2022/03/17 01:27:13;;;;;;;13.27;5.55;;;;;;;-7.92;54.22;102278.47;5086482;28;20496;-80
2022/03/17 01:29:43;;;;;;;17.77;6.80;;;;;;;-7.80;54.48;102323.03;5073367;28;20134;-79
2022/03/17 01:32:10;;;;;;;15.85;6.25;;;;;;;-7.83;54.27;102312.50;5078204;28;20461;-77
2022/03/17 01:34:36;;;;;;;12.55;5.65;;;;;;;-7.85;54.46;102311.41;5074955;28;20084;-77
2022/03/17 01:37:03;;;;;;;13.48;6.05;;;;;;;-7.82;54.72;102342.25;5072880;28;20461;-79
2022/03/17 01:39:30;;;;;;;13.30;6.18;;;;;;;-7.86;54.71;102322.31;5072054;28;20095;-78
2022/03/17 01:42:02;;;;;;;12.68;5.68;;;;;;;-7.87;54.69;102318.88;5072904;28;20571;-78
2022/03/17 01:44:29;;;;;;;15.82;6.25;;;;;;;-7.97;54.58;102308.38;5072759;28;20524;-77
2022/03/17 01:49:42;;;;;;;12.73;5.68;;;;;;;-7.97;54.66;102321.06;5073435;28;20078;-75
2022/03/17 01:52:09;;;;;;;11.82;5.68;;;;;;;-7.97;54.82;102341.38;5074755;28;20101;-78
2022/03/17 01:54:37;;;;;;;13.13;6.05;;;;;;;-7.89;54.24;102330.47;5072983;28;20125;-77
2022/03/17 01:57:06;;;;;;;14.75;5.88;;;;;;;-7.90;54.62;102333.72;5074847;28;20044;-76
2022/03/17 01:59:35;;;;;;;15.43;6.57;;;;;;;-7.96;54.89;102332.09;5093348;28;20084;-78
2022/03/17 02:02:07;;;;;;;16.23;5.20;;;;;;;-7.95;54.75;102352.59;5093072;28;20083;-78
2022/03/17 02:04:35;;;;;;;14.40;6.28;;;;;;;-8.00;54.48;102351.16;5091901;28;20052;-79
2022/03/17 02:07:05;;;;;;;17.90;6.10;;;;;;;-8.03;54.85;102341.53;5092797;28;20581;-78
2022/03/17 02:09:34;;;;;;;12.57;5.20;;;;;;;-8.04;54.49;102339.75;5079237;28;20062;-78
2022/03/17 02:14:59;;;;;;;14.77;5.65;;;;;;;-8.14;54.78;102341.03;5075553;28;20055;-77
2022/03/17 02:17:30;;;;;;;18.58;7.13;;;;;;;-8.16;55.11;102350.97;5072404;28;20399;-79
2022/03/17 02:19:59;;;;;;;14.27;6.88;;;;;;;-8.12;55.14;102345.53;5072660;28;20048;-75
2022/03/17 02:22:28;;;;;;;14.50;6.40;;;;;;;-8.07;54.88;102357.13;5081010;28;20059;-76
2022/03/17 02:27:46;;;;;;;18.73;6.60;;;;;;;-8.15;54.88;102344.28;5092713;28;20056;-78
2022/03/17 02:30:16;;;;;;;14.25;6.00;;;;;;;-8.33;54.97;102318.56;5092773;28;20054;-77
2022/03/17 02:32:44;;;;;;;17.55;6.68;;;;;;;-8.13;54.76;102365.66;5091382;28;20254;-77
2022/03/17 02:35:14;;;;;;;12.93;5.20;;;;;;;-8.17;55.18;102351.72;5092833;28;20056;-77
2022/03/17 02:37:41;;;;;;;15.15;6.30;;;;;;;-8.17;55.18;102360.94;5092098;28;20382;-77
2022/03/17 02:40:11;;;;;;;16.05;6.28;;;;;;;-8.15;55.62;102382.31;5093261;28;20044;-77
2022/03/17 02:42:38;;;;;;;17.17;6.10;;;;;;;-8.18;55.51;102387.94;5093843;28;20472;-76
2022/03/17 02:45:10;;;;;;;13.77;6.43;;;;;;;-8.24;54.99;102370.38;5092730;28;20059;-77
2022/03/17 02:47:38;;;;;;;15.15;6.68;;;;;;;-8.33;55.62;102401.34;5092771;28;20062;-78
2022/03/17 02:50:06;;;;;;;12.95;5.93;;;;;;;-8.34;55.71;102402.09;5091412;28;20083;-78
2022/03/17 02:52:33;;;;;;;12.50;5.95;;;;;;;-8.34;55.58;102399.56;5092451;28;20162;-78
2022/03/17 02:55:00;;;;;;;12.73;5.47;;;;;;;-8.53;55.28;102387.25;5092455;28;20109;-77
2022/03/17 02:57:28;;;;;;;15.50;6.07;;;;;;;-8.47;55.66;102423.47;5094123;28;20412;-76
2022/03/17 02:59:55;;;;;;;14.68;6.10;;;;;;;-8.51;55.88;102423.81;5096187;28;20193;-75
2022/03/17 03:02:23;;;;;;;15.63;5.70;;;;;;;-8.74;55.92;102380.50;5096308;28;20059;-78
2022/03/17 03:04:50;;;;;;;14.88;5.80;;;;;;;-8.64;55.89;102409.50;5096129;28;20059;-76
2022/03/17 03:07:17;;;;;;;17.20;6.50;;;;;;;-8.59;56.12;102414.38;5103687;28;20055;-77
2022/03/17 03:09:44;;;;;;;10.00;5.10;;;;;;;-8.53;55.79;102431.97;5101912;28;20109;-76
2022/03/17 03:12:11;;;;;;;12.55;5.63;;;;;;;-8.55;55.56;102431.78;5096147;28;20059;-80
2022/03/17 03:14:38;;;;;;;13.75;5.75;;;;;;;-8.56;55.67;102440.13;5095834;28;20105;-78
2022/03/17 03:17:06;;;;;;;11.43;5.35;;;;;;;-8.71;55.67;102417.97;5079854;28;20052;-78
2022/03/17 03:19:33;;;;;;;15.90;5.85;;;;;;;-8.64;55.53;102444.97;5074341;28;20173;-77
2022/03/17 03:22:01;;;;;;;14.98;6.47;;;;;;;-8.72;55.62;102429.75;5076053;28;20052;-77
2022/03/17 03:24:28;;;;;;;16.45;6.70;;;;;;;-8.93;55.71;102379.91;5075209;28;20048;-76
2022/03/17 03:26:54;;;;;;;14.13;6.45;;;;;;;-8.64;55.50;102450.94;5093280;28;20055;-77
2022/03/17 03:29:27;;;;;;;13.45;6.03;;;;;;;-8.76;55.67;102424.13;5111829;28;20043;-77
2022/03/17 03:32:00;;;;;;;12.88;5.60;;;;;;;-8.71;55.79;102445.84;5119621;28;20050;-77
2022/03/17 03:34:28;;;;;;;11.18;4.97;;;;;;;-8.81;55.76;102435.34;5101719;28;20052;-76
2022/03/17 03:39:41;;;;;;;11.68;4.65;;;;;;;-8.79;55.63;102444.03;5097858;28;20082;-78
2022/03/17 03:42:09;;;;;;;15.38;5.78;;;;;;;-8.70;55.51;102461.25;5097133;28;20147;-78
2022/03/17 03:44:38;;;;;;;14.43;6.30;;;;;;;-8.66;56.13;102448.22;5095556;28;20060;-79
2022/03/17 03:47:08;;;;;;;14.10;6.15;;;;;;;-8.64;55.44;102468.69;5095293;28;20098;-78
2022/03/17 03:49:38;;;;;;;15.73;7.38;;;;;;;-8.60;55.70;102447.13;5095270;28;20048;-78
2022/03/17 03:52:08;;;;;;;13.77;5.03;;;;;;;-8.93;55.65;102392.56;5095285;28;20052;-79
2022/03/17 03:54:35;;;;;;;14.23;5.80;;;;;;;-8.62;55.54;102464.72;5095262;28;20518;-77
2022/03/17 03:57:03;;;;;;;16.02;5.53;;;;;;;-8.63;55.28;102469.59;5084360;28;20044;-80
2022/03/17 03:59:31;;;;;;;14.15;6.57;;;;;;;-8.75;55.75;102441.16;5087205;28;20097;-80
2022/03/17 04:02:07;;;;;;;14.05;5.82;;;;;;;-8.64;55.21;102468.69;5082397;28;20529;-79
2022/03/17 04:04:38;;;;;;;11.40;6.07;;;;;;;-8.76;55.71;102445.28;5080658;28;20052;-79
2022/03/17 04:07:08;;;;;;;13.52;5.63;;;;;;;-8.64;55.50;102460.19;5065823;28;20050;-79
2022/03/17 04:09:42;;;;;;;15.40;6.25;;;;;;;-8.62;55.32;102482.47;5074634;28;20106;-79
2022/03/17 04:12:12;;;;;;;12.27;5.72;;;;;;;-8.63;55.26;102465.41;5083592;28;20048;-78
2022/03/17 04:14:40;;;;;;;16.50;6.90;;;;;;;-8.55;55.34;102476.50;5073037;28;20064;-78
2022/03/17 04:17:11;;;;;;;14.60;5.57;;;;;;;-8.60;55.03;102463.28;5068612;28;20052;-79
2022/03/17 04:19:39;;;;;;;18.83;6.25;;;;;;;-8.55;55.23;102481.56;5074252;28;20134;-77
2022/03/17 04:22:07;;;;;;;14.52;6.63;;;;;;;-8.43;55.33;102487.19;5074026;28;20040;-78
2022/03/17 04:24:34;;;;;;;18.65;5.22;;;;;;;-8.41;54.73;102478.16;5079929;28;20053;-79
2022/03/17 04:27:02;;;;;;;15.90;5.97;;;;;;;-9.28;55.11;102341.09;5074895;28;20056;-79
2022/03/17 04:29:28;;;;;;;14.23;5.97;;;;;;;-8.22;54.74;102504.97;5074363;28;20572;-79
2022/03/17 04:31:55;;;;;;;14.85;6.10;;;;;;;-8.16;54.79;102497.19;5073646;28;20098;-79
2022/03/17 04:34:22;;;;;;;16.77;6.10;;;;;;;-8.01;54.77;102493.06;5073363;28;20052;-79
2022/03/17 04:36:50;;;;;;;13.63;5.45;;;;;;;-7.87;54.09;102503.22;5073778;28;20506;-80
2022/03/17 04:39:17;;;;;;;18.42;6.60;;;;;;;-7.71;53.81;102500.84;5074142;28;20052;-79
2022/03/17 04:41:44;;;;;;;11.18;4.60;;;;;;;-7.43;53.60;102502.47;5074120;28;20064;-78
2022/03/17 04:44:13;;;;;;;13.43;6.75;;;;;;;-7.36;53.55;102517.69;5074100;28;20098;-78
2022/03/17 04:46:40;;;;;;;22.13;7.22;;;;;;;-7.23;53.43;102510.78;5072444;28;20155;-81
2022/03/17 04:49:09;;;;;;;17.60;6.25;;;;;;;-6.97;52.27;102515.41;5073046;28;20055;-81
2022/03/17 04:51:36;;;;;;;13.77;5.53;;;;;;;-6.95;52.12;102503.78;5073461;28;20098;-79
2022/03/17 04:54:03;;;;;;;18.00;6.72;;;;;;;-6.74;52.46;102513.00;5073908;28;20411;-78
2022/03/17 04:56:30;;;;;;;17.13;6.53;;;;;;;-6.47;52.07;102499.09;5074102;28;20052;-79
2022/03/17 04:58:57;;;;;;;15.23;6.47;;;;;;;-6.11;51.25;102516.66;5073623;28;20432;-78
2022/03/17 05:01:24;;;;;;;16.05;6.10;;;;;;;-5.84;50.47;102519.72;5073958;28;20497;-79
2022/03/17 05:03:51;;;;;;;12.55;5.65;;;;;;;-5.62;50.17;102505.16;5073994;28;20080;-79
2022/03/17 05:06:19;;;;;;;19.98;6.22;;;;;;;-5.54;49.93;102513.66;5079094;28;20501;-80
2022/03/17 05:08:46;;;;;;;16.30;5.20;;;;;;;-5.40;49.40;102525.34;5071786;28;20094;-77
2022/03/17 05:11:13;;;;;;;13.63;5.93;;;;;;;-5.49;49.22;102491.22;5073483;28;20059;-78
2022/03/17 05:13:43;;;;;;;16.58;5.90;;;;;;;-5.19;49.23;102521.69;5073261;28;20060;-79
2022/03/17 05:16:11;;;;;;;17.58;6.00;;;;;;;-5.10;48.97;102519.22;5073608;28;20072;-80
2022/03/17 05:18:38;;;;;;;16.92;6.00;;;;;;;-4.95;48.29;102509.06;5073255;28;20139;-77
2022/03/17 05:21:05;;;;;;;15.68;5.45;;;;;;;-4.91;47.45;102514.47;5072567;28;20421;-79
2022/03/17 05:23:59;;;;;;;14.32;5.75;;;;;;;-5.17;47.84;102522.75;5074165;28;20057;-78
2022/03/17 05:26:50;;;;;;;13.93;5.95;;;;;;;-5.30;48.44;102502.69;5051201;28;20059;-77
2022/03/17 05:29:16;;;;;;;15.85;6.18;;;;;;;-5.26;47.60;102540.50;5073697;28;20057;-80
2022/03/17 05:31:43;;;;;;;15.65;5.53;;;;;;;-5.23;47.69;102529.75;5073602;28;20080;-78
2022/03/17 05:34:10;;;;;;;11.20;5.22;;;;;;;-4.95;47.77;102542.22;5073524;28;20085;-80
2022/03/17 05:36:37;;;;;;;16.90;7.32;;;;;;;-4.70;47.19;102528.63;5073256;28;20118;-83
2022/03/17 05:39:04;;;;;;;12.48;5.03;;;;;;;-4.50;46.56;102533.28;5072961;28;20051;-79
2022/03/17 05:41:31;;;;;;;12.18;5.65;;;;;;;-4.46;46.50;102540.53;5073477;28;20056;-80
2022/03/17 05:43:58;;;;;;;13.23;5.57;;;;;;;-4.32;45.68;102504.63;5073179;28;20052;-78
2022/03/17 05:46:25;;;;;;;13.27;5.80;;;;;;;-4.14;45.33;102511.66;5073586;28;20059;-79
2022/03/17 05:48:53;;;;;;;13.75;6.10;;;;;;;-4.14;45.13;102534.63;5073087;28;20055;-79
2022/03/17 05:51:20;;;;;;;13.77;5.60;;;;;;;-4.25;45.45;102536.81;5072337;28;20086;-79
2022/03/17 05:53:47;;;;;;;12.00;5.28;;;;;;;-4.20;45.18;102540.72;5076837;28;20136;-79
2022/03/17 05:56:14;;;;;;;14.27;5.03;;;;;;;-4.05;44.92;102532.13;5079896;28;20063;-78
2022/03/17 05:58:42;;;;;;;15.00;5.70;;;;;;;-4.03;44.26;102543.41;5084033;28;20052;-78
2022/03/17 06:01:09;;;;;;;11.63;5.20;;;;;;;-3.93;44.29;102552.94;5091755;28;20040;-77
2022/03/17 06:03:37;;;;;;;14.43;4.90;;;;;;;-3.87;44.32;102530.59;5099311;28;20052;-77
2022/03/17 06:06:04;;;;;;;13.43;6.03;;;;;;;-4.01;44.32;102533.34;5088072;28;20143;-77
2022/03/17 06:08:31;;;;;;;12.85;4.95;;;;;;;-3.93;44.30;102542.72;5071590;28;20434;-80
2022/03/17 06:10:58;;;;;;;14.90;5.85;;;;;;;-3.85;43.88;102531.66;5062784;28;20098;-78
2022/03/17 06:13:25;;;;;;;13.50;5.30;;;;;;;-3.65;43.73;102540.47;5074249;28;20083;-79
2022/03/17 06:15:52;;;;;;;10.32;4.93;;;;;;;-3.80;43.40;102481.06;5061456;28;20083;-77
2022/03/17 06:18:19;;;;;;;13.85;5.10;;;;;;;-3.48;43.07;102532.88;5063833;28;20048;-77
2022/03/17 06:20:46;;;;;;;10.85;4.97;;;;;;;-3.56;43.28;102544.88;5072647;28;20048;-78
2022/03/17 06:23:13;;;;;;;12.52;5.22;;;;;;;-3.70;43.03;102545.09;5065862;28;20052;-79
2022/03/17 06:25:40;;;;;;;10.18;4.65;;;;;;;-3.93;43.12;102497.66;5062817;28;20115;-79
2022/03/17 06:28:09;;;;;;;10.95;4.50;;;;;;;-3.88;42.92;102503.22;5066863;28;20064;-78
2022/03/17 06:30:37;;;;;;;11.50;5.47;;;;;;;-3.71;43.32;102530.53;5070094;28;20057;-78
2022/03/17 06:33:06;;;;;;;10.43;4.70;;;;;;;-3.55;43.37;102562.03;5070455;28;20052;-78
2022/03/17 06:35:34;;;;;;;14.20;5.30;;;;;;;-3.68;42.79;102507.81;5075064;28;20504;-78
2022/03/17 06:38:04;;;;;;;11.77;5.53;;;;;;;-3.25;42.65;102554.75;5074977;28;20086;-78
2022/03/17 06:40:31;;;;;;;21.08;5.55;;;;;;;-3.07;42.02;102556.63;5076322;28;20059;-79
2022/03/17 06:42:59;;;;;;;12.15;5.63;;;;;;;-2.73;41.77;102547.19;5076197;28;20063;-79
2022/03/17 06:45:26;;;;;;;12.68;5.32;;;;;;;-2.55;41.13;102531.13;5076515;28;20497;-80
2022/03/17 06:47:54;;;;;;;13.27;5.57;;;;;;;-2.12;40.51;102552.34;5076398;28;20214;-79
2022/03/17 06:50:22;;;;;;;14.00;5.38;;;;;;;-1.92;40.13;102538.91;5075161;28;20102;-79
2022/03/17 06:52:50;;;;;;;11.75;4.43;;;;;;;-1.82;39.94;102530.44;5074421;28;20479;-79
2022/03/17 06:55:18;;;;;;;12.98;4.60;;;;;;;-1.67;39.42;102499.47;5074691;28;20517;-79
2022/03/17 06:57:45;;;;;;;10.48;4.72;;;;;;;-1.15;39.01;102541.03;5075884;28;20052;-78
2022/03/17 07:00:14;;;;;;;9.60;4.60;;;;;;;-0.92;38.39;102548.31;5075878;28;20139;-80
2022/03/17 07:02:41;;;;;;;12.10;5.53;;;;;;;-0.73;37.87;102535.47;5084774;28;20052;-79
2022/03/17 07:05:08;;;;;;;7.03;3.40;;;;;;;-1.07;37.74;102534.97;5087176;28;20056;-79
2022/03/17 07:07:36;;;;;;;11.70;4.63;;;;;;;-1.37;37.61;102538.13;5075585;28;20063;-80
2022/03/17 07:10:06;;;;;;;7.82;4.05;;;;;;;-1.60;37.85;102557.34;5074141;28;20048;-79
2022/03/17 07:12:37;;;;;;;11.45;3.95;;;;;;;-1.93;38.09;102543.13;5075436;28;20084;-78
2022/03/17 07:15:05;;;;;;;7.97;4.10;;;;;;;-2.29;38.14;102491.81;5075886;28;20060;-79
2022/03/17 07:17:42;;;;;;;9.43;4.03;;;;;;;-2.07;37.96;102558.81;5075050;28;20048;-78
2022/03/17 07:20:15;;;;;;;5.45;2.80;;;;;;;-2.36;37.05;102513.34;5057056;28;20052;-80
2022/03/17 07:22:43;;;;;;;8.10;3.50;;;;;;;-2.25;37.24;102557.03;5071464;28;20059;-78
2022/03/17 07:25:11;;;;;;;7.13;3.05;;;;;;;-2.23;36.67;102573.47;5085993;28;20044;-79
2022/03/17 07:27:43;;;;;;;9.38;3.50;;;;;;;-2.37;36.74;102567.84;5086335;28;20130;-77
2022/03/17 07:30:14;;;;;;;8.30;3.13;;;;;;;-2.49;36.90;102523.16;5082065;28;20048;-78
2022/03/17 07:32:41;;;;;;;;;;;;;;;-2.21;37.53;102556.59;5085030;28;20059;-78
2022/03/17 07:35:08;;;;;;;6.70;3.38;;;;;;;-2.13;36.82;102565.88;5085833;28;19924;-79
2022/03/17 07:37:35;;;;;;;8.05;3.58;;;;;;;-2.09;36.73;102562.88;5084989;28;20057;-80
2022/03/17 07:40:03;;;;;;;10.70;3.53;;;;;;;-2.26;36.30;102527.94;5083893;28;20050;-80
2022/03/17 07:42:31;;;;;;;5.85;3.10;;;;;;;-2.06;36.28;102558.97;5080573;28;20048;-80
2022/03/17 07:45:38;;;;;;;7.65;2.97;;;;;;;-2.07;36.00;102561.38;5085163;28;20058;-79
2022/03/17 07:48:37;;;;;;;9.90;3.35;;;;;;;-2.23;36.15;102564.09;5085164;28;20134;-77
2022/03/17 07:51:12;;;;;;;10.15;3.97;;;;;;;-2.09;36.18;102560.31;5083108;28;20048;-77
2022/03/17 07:53:39;;;;;;;8.30;3.47;;;;;;;-2.25;35.93;102518.63;5083985;28;20120;-78
2022/03/17 07:56:10;;;;;;;7.50;3.28;;;;;;;-2.08;35.55;102542.53;5085363;28;20142;-79
2022/03/17 07:58:38;;;;;;;5.85;3.15;;;;;;;-2.12;35.48;102555.81;5084800;28;20052;-79
2022/03/17 08:01:05;;;;;;;7.10;3.53;;;;;;;-2.03;34.92;102550.66;5083333;28;20058;-77
2022/03/17 08:03:32;;;;;;;17.52;3.60;;;;;;;-1.83;34.79;102567.06;5083258;28;20056;-79
2022/03/17 08:06:01;;;;;;;13.93;3.67;;;;;;;-1.90;34.72;102583.50;5077061;28;20476;-77
2022/03/17 08:08:28;;;;;;;10.20;3.30;;;;;;;-1.84;34.61;102583.22;5074794;28;20079;-77
2022/03/17 08:10:57;;;;;;;6.85;3.50;;;;;;;-1.95;34.38;102526.69;5074445;28;20125;-78
2022/03/17 08:13:25;;;;;;;4.93;2.88;;;;;;;-1.62;33.88;102586.16;5074726;28;20061;-79
2022/03/17 08:15:52;;;;;;;6.68;2.83;;;;;;;-1.58;33.83;102573.78;5074713;28;20056;-78
2022/03/17 08:18:20;;;;;;;8.13;2.70;;;;;;;-1.38;33.65;102595.28;5074427;28;20098;-78
2022/03/17 08:20:47;;;;;;;4.75;2.90;;;;;;;-1.22;33.48;102572.00;5074626;28;20060;-79
2022/03/17 08:23:21;;;;;;;7.57;2.85;;;;;;;-1.19;33.39;102568.03;5073604;28;20065;-78
2022/03/17 08:25:49;;;;;;;12.73;3.17;;;;;;;-1.20;32.91;102578.19;5074653;28;20049;-80
2022/03/17 08:28:19;;;;;;;4.32;2.65;;;;;;;-1.15;32.10;102587.22;5057128;28;20598;-80
2022/03/17 08:30:50;;;;;;;7.95;3.10;;;;;;;-1.22;32.24;102566.88;5076687;28;20057;-79
2022/03/17 08:33:18;;;;;;;6.90;3.25;;;;;;;-1.11;32.29;102579.94;5083722;28;20053;-78
2022/03/17 08:35:45;;;;;;;5.25;2.78;;;;;;;-1.19;32.21;102534.69;5098081;28;20048;-78
2022/03/17 08:38:12;;;;;;;6.72;3.00;;;;;;;-0.83;31.60;102573.13;5082202;28;20513;-78
2022/03/17 08:40:41;;;;;;;4.25;2.30;;;;;;;-0.89;31.42;102577.69;5075529;28;20090;-79
2022/03/17 08:43:11;;;;;;;8.18;2.80;;;;;;;-1.15;31.02;102548.72;5074318;28;20099;-80
2022/03/17 08:51:12;;;;;;;5.25;2.50;;;;;;;-1.36;31.63;102547.63;5073989;28;20147;-80
2022/03/17 08:53:39;;;;;;;7.57;2.78;;;;;;;-1.25;31.47;102537.63;5074283;28;20143;-78
2022/03/17 08:56:07;;;;;;;11.57;3.25;;;;;;;-0.95;31.53;102568.53;5072795;28;20056;-80
2022/03/17 08:58:38;;;;;;;4.00;2.22;;;;;;;-0.80;30.88;102576.75;5074098;28;20057;-81
2022/03/17 09:01:05;;;;;;;6.03;2.40;;;;;;;-0.80;30.71;102585.34;5087079;28;20053;-78
2022/03/17 09:03:32;;;;;;;4.85;2.03;;;;;;;-0.86;31.04;102577.06;5073750;28;20052;-81
2022/03/17 09:06:00;;;;;;;4.60;2.55;;;;;;;-0.75;30.49;102591.81;5073878;28;20049;-78
2022/03/17 09:08:27;;;;;;;3.70;2.17;;;;;;;-0.78;30.05;102578.69;5074036;28;20509;-79
2022/03/17 09:10:55;;;;;;;4.72;2.20;;;;;;;-0.97;30.26;102544.38;5055719;28;20524;-79
2022/03/17 09:13:25;;;;;;;3.33;2.03;;;;;;;-0.87;29.27;102540.25;5073864;28;20501;-77
2022/03/17 09:15:54;;;;;;;6.88;2.58;;;;;;;-0.70;29.52;102539.22;5071753;28;20052;-77
2022/03/17 09:18:22;;;;;;;4.10;2.35;;;;;;;-0.76;29.61;102515.56;5072896;28;20048;-78
2022/03/17 09:20:49;;;;;;;4.60;2.30;;;;;;;-0.34;29.53;102557.84;5070196;28;20060;-78
2022/03/17 09:23:17;;;;;;;5.78;2.40;;;;;;;-0.27;29.01;102584.22;5084233;28;20079;-80
2022/03/17 09:25:45;;;;;;;3.03;1.92;;;;;;;-0.47;29.11;102546.47;5093696;28;20056;-79
2022/03/17 09:28:13;;;;;;;5.03;2.10;;;;;;;-0.24;28.80;102565.59;5093606;28;20109;-79
2022/03/17 09:30:41;;;;;;;5.00;2.88;;;;;;;-0.08;28.77;102585.88;5075547;28;20055;-78
2022/03/17 09:33:09;;;;;;;6.03;2.30;;;;;;;0.05;28.85;102595.59;5093465;28;20052;-78
2022/03/17 09:35:36;;;;;;;4.03;2.10;;;;;;;-0.13;27.87;102569.13;5093274;28;20056;-77
2022/03/17 09:38:05;;;;;;;7.25;2.50;;;;;;;-0.34;28.05;102589.56;5093989;28;20070;-79
2022/03/17 09:40:39;;;;;;;6.35;2.25;;;;;;;-0.44;28.30;102581.78;5093402;28;20055;-79
2022/03/17 09:43:18;;;;;;;4.40;2.40;;;;;;;-0.45;28.38;102598.88;5093387;28;20097;-77
2022/03/17 09:45:58;;;;;;;6.72;2.28;;;;;;;-0.40;27.77;102562.44;5093254;28;20580;-78
2022/03/17 09:48:27;;;;;;;3.22;2.10;;;;;;;-0.60;27.83;102532.34;5098390;28;20052;-76
2022/03/17 09:50:57;;;;;;;4.88;1.75;;;;;;;-0.53;27.65;102581.84;5093786;28;20043;-78
2022/03/17 09:53:28;;;;;;;3.65;2.30;;;;;;;-0.53;27.86;102571.59;5077046;28;20056;-77
2022/03/17 09:55:55;;;;;;;4.78;2.38;;;;;;;-0.48;27.75;102559.16;5094342;28;20501;-78
2022/03/17 09:58:22;;;;;;;7.93;2.15;;;;;;;-1.00;27.70;102487.66;5094239;28;20215;-77
2022/03/17 10:00:49;;;;;;;5.28;2.13;;;;;;;-0.32;28.01;102543.44;5094280;28;20044;-78
2022/03/17 10:03:21;;;;;;;7.72;2.50;;;;;;;-0.06;27.95;102563.81;5093036;28;20489;-79
2022/03/17 10:05:49;;;;;;;4.30;2.35;;;;;;;-0.27;27.36;102532.84;5091771;28;20139;-78
2022/03/17 10:08:23;;;;;;;6.38;2.60;;;;;;;-0.48;27.61;102494.97;5093088;28;20067;-80
2022/03/17 10:10:52;;;;;;;6.75;2.42;;;;;;;-0.14;27.46;102572.47;5091967;28;20386;-79
2022/03/17 10:13:24;;;;;;;6.65;2.47;;;;;;;-0.45;27.70;102514.13;5093625;28;20062;-79
2022/03/17 10:16:18;;;;;;;5.25;2.45;;;;;;;0.12;28.20;102555.13;5091780;28;20051;-78
2022/03/17 10:18:57;;;;;;;6.25;2.15;;;;;;;0.15;27.58;102542.56;5075241;28;20048;-78
2022/03/17 10:21:32;;;;;;;6.05;2.20;;;;;;;-0.02;27.56;102535.03;5093388;28;20101;-79
2022/03/17 10:24:02;;;;;;;6.72;2.50;;;;;;;-0.30;27.92;102508.53;5092254;28;20056;-79
2022/03/17 10:26:47;;;;;;;3.10;2.03;;;;;;;0.02;27.75;102556.75;5093104;28;20044;-79
2022/03/17 10:29:22;;;;;;;8.45;2.05;;;;;;;-0.12;27.10;102560.69;5091294;28;20459;-80
2022/03/17 10:32:04;;;;;;;6.43;2.88;;;;;;;-0.09;28.26;102551.56;5091161;28;20582;-80
2022/03/17 10:34:33;;;;;;;4.22;2.00;;;;;;;-0.03;27.74;102544.41;5090961;28;20048;-79
2022/03/17 10:37:07;;;;;;;4.25;2.40;;;;;;;0.08;27.60;102549.59;5092800;28;20056;-78
2022/03/17 10:39:36;;;;;;;5.88;2.50;;;;;;;0.13;27.68;102548.31;5092741;28;20238;-78
2022/03/17 10:42:10;;;;;;;6.07;2.40;;;;;;;0.44;27.56;102551.91;5092421;28;20102;-78
2022/03/17 10:44:40;;;;;;;7.03;2.78;;;;;;;0.60;27.11;102542.19;5092505;28;20105;-78
2022/03/17 10:47:08;;;;;;;5.97;2.38;;;;;;;0.63;27.76;102571.53;5092262;28;20070;-78
2022/03/17 10:49:36;;;;;;;4.88;2.22;;;;;;;0.47;27.28;102557.31;5091927;28;20429;-78
2022/03/17 10:52:05;;;;;;;10.38;2.50;;;;;;;0.43;27.52;102546.63;5092321;28;20078;-78
2022/03/17 10:54:32;;;;;;;5.70;2.05;;;;;;;0.20;26.91;102525.88;5091644;28;20139;-79
2022/03/17 10:57:03;;;;;;;7.10;2.33;;;;;;;0.19;27.52;102534.38;5094726;28;20044;-78
2022/03/17 10:59:47;;;;;;;4.15;2.10;;;;;;;0.38;27.53;102543.66;5099297;28;20063;-79
2022/03/17 11:02:21;;;;;;;4.70;2.33;;;;;;;0.48;27.46;102547.97;5093680;28;20056;-79
2022/03/17 11:04:49;;;;;;;6.00;2.67;;;;;;;0.16;26.76;102497.19;5097012;28;20052;-77
2022/03/17 11:07:17;;;;;;;4.78;2.03;;;;;;;0.19;27.34;102498.38;5115488;28;20044;-78
2022/03/17 11:09:46;;;;;;;5.28;1.95;;;;;;;0.32;26.99;102526.06;5116040;28;20032;-80
2022/03/17 11:12:20;;;;;;;3.80;2.13;;;;;;;0.27;27.00;102513.56;5098176;28;20059;-78
2022/03/17 11:14:50;;;;;;;4.47;2.00;;;;;;;0.44;27.19;102526.19;5093078;28;20052;-79
2022/03/17 11:17:26;;;;;;;6.00;2.55;;;;;;;0.27;27.19;102500.69;5091170;28;20055;-78
2022/03/17 11:20:02;;;;;;;6.28;2.70;;;;;;;0.48;27.26;102530.84;5095843;28;20091;-79
2022/03/17 11:22:32;;;;;;;5.15;2.60;;;;;;;0.41;27.19;102489.94;5095936;28;20055;-78
2022/03/17 11:25:19;;;;;;;5.97;2.38;;;;;;;0.66;27.13;102523.81;5096078;28;20362;-80
2022/03/17 11:27:55;;;;;;;3.83;2.10;;;;;;;0.65;27.66;102521.13;5099064;28;20070;-78
2022/03/17 11:30:31;;;;;;;4.72;2.20;;;;;;;0.68;27.04;102534.22;5104589;28;20052;-80
2022/03/17 11:32:58;;;;;;;4.55;1.83;;;;;;;0.61;26.93;102530.22;5100598;28;20106;-79
2022/03/17 11:35:29;;;;;;;4.80;2.70;;;;;;;0.45;26.91;102515.13;5103410;28;20060;-77
2022/03/17 11:38:17;;;;;;;8.00;2.67;;;;;;;0.65;27.08;102518.53;5096717;28;20056;-79
2022/03/17 11:41:06;;;;;;;4.20;1.95;;;;;;;0.80;26.89;102509.56;5095837;28;20051;-79
2022/03/17 11:43:45;;;;;;;6.45;2.42;;;;;;;0.83;26.72;102507.22;5088663;28;20052;-79
2022/03/17 11:46:23;;;;;;;5.70;2.20;;;;;;;0.69;26.86;102466.53;5095465;28;20063;-80
2022/03/17 11:48:52;;;;;;;5.40;2.35;;;;;;;0.88;26.72;102503.34;5096347;28;20055;-77
2022/03/17 11:51:20;;;;;;;4.18;2.13;;;;;;;0.68;26.53;102487.91;5093929;28;20142;-78